Time;durP1;ratioP1;P1;durP2;ratioP2;P2;SDS_P1;SDS_P2;PMS_P1;PMS_P2;Temp;Humidity;BMP_temperature;BMP_pressure;BME280_temperature;BME280_humidity;BME280_pressure;Samples;Min_cycle;Max_cycle;Signal;HPM_P1;HPM_P2
2021/12/23 00:00:42;;;;;;;;;53.75;43.50;;;;;4.42;57.34;101146.72;2053351;28;47727;-66
2021/12/23 00:01:43;;;;;;;;;53.25;43.00;;;;;4.41;57.20;101151.09;2053339;28;46874;-65
2021/12/23 00:02:44;;;;;;;;;53.80;44.60;;;;;4.40;57.34;101137.94;2051369;28;45426;-65
2021/12/23 00:03:44;;;;;;;;;54.75;43.25;;;;;4.39;57.13;101139.69;2046146;28;48097;-65
2021/12/23 00:04:45;;;;;;;;;52.75;44.00;;;;;4.39;57.55;101133.56;2050178;28;47753;-65
2021/12/23 00:05:46;;;;;;;;;50.00;42.40;;;;;4.39;57.08;101133.56;2053912;28;47869;-66
2021/12/23 00:06:46;;;;;;;;;55.50;42.50;;;;;4.38;57.31;101135.31;2050564;28;47205;-67
2021/12/23 00:07:47;;;;;;;;;51.25;42.75;;;;;4.38;57.56;101131.78;2045794;28;46745;-66
2021/12/23 00:08:47;;;;;;;;;52.50;40.75;;;;;4.37;57.19;101125.66;2045811;28;47589;-66
2021/12/23 00:10:48;;;;;;;;;48.25;40.50;;;;;4.36;57.31;101126.53;2054147;28;47796;-65
2021/12/23 00:11:49;;;;;;;;;51.25;42.25;;;;;4.36;57.64;101121.28;2054409;28;48081;-65
2021/12/23 00:12:49;;;;;;;;;46.75;42.00;;;;;4.37;57.41;101128.28;2054220;28;46988;-65
2021/12/23 00:14:02;;;;;;;;;49.50;39.50;;;;;4.37;57.34;101124.78;2052674;28;48240;-64
2021/12/23 00:15:08;;;;;;;;;47.60;39.60;;;;;4.36;57.69;101123.03;2052401;28;47704;-65
2021/12/23 00:16:17;;;;;;;;;50.40;43.60;;;;;4.37;57.70;101127.41;2054100;28;47891;-64
2021/12/23 00:17:52;;;;;;;;;49.20;40.20;;;;;4.37;57.73;101130.91;2054567;28;47691;-64
2021/12/23 00:18:55;;;;;;;;;45.60;40.40;;;;;4.38;57.30;101119.53;2053242;28;47769;-65
2021/12/23 00:24:00;;;;;;;;;47.20;39.40;;;;;4.35;57.46;101109.00;2052572;28;47023;-66
2021/12/23 00:25:01;;;;;;;;;50.40;40.00;;;;;4.34;57.79;101099.38;2052775;28;47291;-66
2021/12/23 00:26:03;;;;;;;;;49.75;41.75;;;;;4.35;57.74;101097.63;2053599;28;47500;-65
2021/12/23 00:27:04;;;;;;;;;53.20;44.20;;;;;4.33;57.62;101094.97;2050149;28;47424;-65
2021/12/23 00:28:04;;;;;;;;;52.00;38.80;;;;;4.34;57.44;101096.75;2059620;28;48026;-65
2021/12/23 00:29:16;;;;;;;;;53.00;44.60;;;;;4.34;57.42;101091.47;2052756;28;47416;-65
2021/12/23 00:30:16;;;;;;;;;57.50;44.75;;;;;4.34;57.61;101082.72;2054532;28;48137;-67
2021/12/23 00:31:17;;;;;;;;;49.75;42.00;;;;;4.34;57.42;101095.84;2052747;28;48034;-65
2021/12/23 00:32:18;;;;;;;;;48.75;41.00;;;;;4.33;57.59;101092.34;2053739;28;47279;-66
2021/12/23 00:33:21;;;;;;;;;51.25;41.75;;;;;4.33;57.66;101097.59;2053890;28;46699;-66
2021/12/23 00:34:21;;;;;;;;;46.20;39.80;;;;;4.32;57.60;101093.22;2054117;28;47258;-65
2021/12/23 00:35:22;;;;;;;;;56.00;43.50;;;;;4.32;57.67;101098.47;2050505;28;47346;-65
2021/12/23 00:36:23;;;;;;;;;50.00;41.20;;;;;4.33;57.53;101096.72;2057668;28;48299;-65
2021/12/23 00:37:24;;;;;;;;;47.00;41.00;;;;;4.32;57.54;101093.22;2053883;28;47946;-65
2021/12/23 00:38:32;;;;;;;;;49.00;41.25;;;;;4.32;57.96;101089.69;2049144;28;48147;-65
2021/12/23 00:39:32;;;;;;;;;51.40;42.80;;;;;4.33;57.73;101097.59;2053414;28;47392;-65
2021/12/23 00:40:33;;;;;;;;;55.25;41.25;;;;;4.32;57.58;101089.69;2053337;28;48773;-65
2021/12/23 00:41:33;;;;;;;;;53.50;45.50;;;;;4.32;57.87;101084.44;2071581;28;46899;-65
2021/12/23 00:42:34;;;;;;;;;45.00;40.75;;;;;4.32;57.61;101084.44;2061847;28;46345;-65
2021/12/23 00:43:35;;;;;;;;;44.80;39.20;;;;;4.32;57.56;101085.34;2062540;27;48640;-67
2021/12/23 00:44:40;;;;;;;;;49.20;43.00;;;;;4.33;57.53;101080.97;2054584;28;47068;-66
2021/12/23 00:45:40;;;;;;;;;44.60;40.60;;;;;4.32;57.39;101079.16;2054664;28;48730;-66
2021/12/23 00:46:41;;;;;;;;;47.50;42.75;;;;;4.31;57.68;101077.41;2056518;28;48343;-65
2021/12/23 00:47:41;;;;;;;;;47.50;42.25;;;;;4.31;57.72;101080.03;2062552;27;47206;-65
2021/12/23 00:48:42;;;;;;;;;54.00;41.75;;;;;4.30;57.68;101076.53;2053659;28;47675;-65
2021/12/23 00:49:42;;;;;;;;;45.00;40.25;;;;;4.31;57.67;101080.03;2054648;28;48353;-65
2021/12/23 00:50:43;;;;;;;;;49.25;39.75;;;;;4.30;58.10;101071.28;2055723;27;47678;-66
2021/12/23 00:51:44;;;;;;;;;53.00;42.40;;;;;4.31;57.65;101085.28;2059105;28;46948;-65
2021/12/23 00:52:45;;;;;;;;;52.75;41.50;;;;;4.30;57.73;101073.03;2062487;27;47104;-65
2021/12/23 00:53:49;;;;;;;;;51.20;42.80;;;;;4.30;57.83;101081.78;2059941;27;47268;-64
2021/12/23 00:54:49;;;;;;;;;57.60;47.60;;;;;4.30;57.80;101078.28;2056269;28;47731;-65
2021/12/23 00:55:53;;;;;;;;;49.75;42.50;;;;;4.31;57.91;101080.03;2054504;28;48337;-65
2021/12/23 00:56:54;;;;;;;;;48.60;41.40;;;;;4.31;57.90;101077.41;2061904;27;47881;-65
2021/12/23 00:57:54;;;;;;;;;53.25;44.00;;;;;4.31;58.02;101074.78;2060461;28;46900;-65
2021/12/23 00:58:55;;;;;;;;;43.50;38.00;;;;;4.30;57.93;101068.66;2060567;27;48834;-64
2021/12/23 00:59:57;;;;;;;;;54.50;43.25;;;;;4.31;57.70;101078.28;2054115;28;47311;-64
2021/12/23 01:01:01;;;;;;;;;21.60;20.00;;;;;4.31;57.74;101072.16;2055447;28;47093;-64
2021/12/23 01:02:03;;;;;;;;;47.20;42.20;;;;;4.30;57.68;101066.03;2062002;28;47812;-64
2021/12/23 01:03:04;;;;;;;;;53.60;43.60;;;;;4.30;58.01;101066.03;2062490;27;48009;-65
2021/12/23 01:04:04;;;;;;;;;55.25;46.50;;;;;4.31;58.18;101069.53;2056526;28;47620;-65
2021/12/23 01:05:05;;;;;;;;;57.50;48.50;;;;;4.30;57.98;101066.03;2056391;28;48043;-64
2021/12/23 01:06:05;;;;;;;;;52.00;41.00;;;;;4.29;58.15;101064.25;2053395;28;47631;-65
2021/12/23 01:07:06;;;;;;;;;49.25;43.00;;;;;4.30;58.12;101065.16;2054279;28;47142;-64
2021/12/23 01:08:07;;;;;;;;;52.75;42.50;;;;;4.30;57.73;101062.53;2060401;28;47397;-65
2021/12/23 01:09:07;;;;;;;;;44.25;38.25;;;;;4.29;57.57;101066.91;2059578;28;48504;-64
2021/12/23 01:10:09;;;;;;;;;47.50;40.25;;;;;4.29;57.69;101056.38;2054314;28;48228;-66
2021/12/23 01:11:10;;;;;;;;;48.80;39.20;;;;;4.29;57.87;101064.25;2054381;27;48442;-64
2021/12/23 01:12:12;;;;;;;;;51.25;39.75;;;;;4.28;58.21;101064.25;2054075;28;46169;-65
2021/12/23 01:13:14;;;;;;;;;55.00;44.20;;;;;4.29;57.75;101063.38;2062331;28;46917;-64
2021/12/23 01:16:47;;;;;;;;;42.20;37.80;;;;;4.28;57.80;101062.50;2053031;28;47453;-65
2021/12/23 01:17:55;;;;;;;;;49.80;41.00;;;;;4.27;57.97;101057.25;2056728;28;48287;-65
2021/12/23 01:18:57;;;;;;;;;54.40;43.40;;;;;4.28;57.92;101059.88;2055105;28;48559;-64
2021/12/23 01:20:01;;;;;;;;;50.20;43.60;;;;;4.27;57.81;101057.25;2053966;28;47164;-65
2021/12/23 01:21:14;;;;;;;;;49.00;41.00;;;;;4.28;57.98;101062.50;2054094;28;47430;-64
2021/12/23 01:22:15;;;;;;;;;42.60;38.40;;;;;4.29;57.88;101063.38;2046172;28;48523;-65
2021/12/23 01:23:16;;;;;;;;;48.50;38.25;;;;;4.29;58.05;101061.63;2050072;28;47063;-65
2021/12/23 01:24:16;;;;;;;;;55.25;44.50;;;;;4.30;58.08;101065.16;2053457;28;47156;-65
2021/12/23 01:25:17;;;;;;;;;55.50;46.00;;;;;4.30;58.27;101065.16;2051055;28;47009;-65
2021/12/23 01:26:21;;;;;;;;;50.25;42.25;;;;;4.30;58.23;101063.41;2049413;28;46423;-65
2021/12/23 01:27:21;;;;;;;;;53.60;43.40;;;;;4.31;57.90;101057.28;2052273;28;47712;-65
2021/12/23 01:28:22;;;;;;;;;46.00;39.25;;;;;4.30;57.97;101052.88;2084939;28;47376;-65
2021/12/23 01:29:22;;;;;;;;;50.25;40.75;;;;;4.31;57.76;101053.75;2075357;27;47509;-66
2021/12/23 01:30:24;;;;;;;;;54.50;41.50;;;;;4.30;57.81;101045.00;2054165;28;48251;-65
2021/12/23 01:31:26;;;;;;;;;51.00;41.00;;;;;4.31;57.76;101040.63;2056630;28;48283;-65
2021/12/23 01:32:27;;;;;;;;;48.60;42.80;;;;;4.29;57.85;101038.00;2055801;28;47033;-65
2021/12/23 01:33:27;;;;;;;;;52.50;44.75;;;;;4.28;58.18;101036.25;2096747;27;46089;-64
2021/12/23 01:34:28;;;;;;;;;41.50;39.00;;;;;4.29;58.23;101035.38;2067600;27;47420;-66
2021/12/23 01:35:28;;;;;;;;;50.00;40.00;;;;;4.30;58.17;101037.13;2054489;28;48481;-66
2021/12/23 01:36:29;;;;;;;;;49.75;42.00;;;;;4.29;57.98;101038.00;2066076;28;48092;-65
2021/12/23 01:37:29;;;;;;;;;49.25;41.00;;;;;4.29;57.93;101032.75;2063542;28;47514;-65
2021/12/23 01:38:30;;;;;;;;;50.50;39.50;;;;;4.28;57.77;101038.88;2075137;28;47490;-65
2021/12/23 01:39:31;;;;;;;;;33.00;32.25;;;;;4.29;58.05;101039.75;2057589;27;47300;-65
2021/12/23 01:40:32;;;;;;;;;48.40;40.40;;;;;4.28;58.13;101035.34;2065102;27;48027;-66
2021/12/23 01:41:33;;;;;;;;;55.75;44.25;;;;;4.26;58.13;101037.09;2070060;27;47223;-66
2021/12/23 01:42:33;;;;;;;;;56.25;44.00;;;;;4.27;58.30;101039.72;2061624;27;46077;-66
2021/12/23 01:43:34;;;;;;;;;50.50;43.00;;;;;4.28;57.95;101037.97;2063769;28;48230;-65
2021/12/23 01:44:35;;;;;;;;;51.80;43.80;;;;;4.27;58.26;101036.22;2055583;28;48141;-65
2021/12/23 01:45:43;;;;;;;;;53.00;45.00;;;;;4.26;58.42;101037.97;2056510;28;48198;-65
2021/12/23 01:46:44;;;;;;;;;47.00;38.60;;;;;4.26;58.04;101037.09;2053982;27;48786;-65
2021/12/23 01:47:46;;;;;;;;;38.50;33.75;;;;;4.25;58.04;101030.97;2054357;28;47148;-66
2021/12/23 01:48:46;;;;;;;;;52.80;43.00;;;;;4.26;58.50;101034.47;2062586;28;48292;-64
2021/12/23 01:49:47;;;;;;;;;50.75;41.00;;;;;4.26;58.45;101031.84;2057033;28;48189;-67
2021/12/23 01:50:48;;;;;;;;;57.00;44.00;;;;;4.26;58.46;101030.09;2053937;27;47766;-66
2021/12/23 01:51:48;;;;;;;;;51.40;42.60;;;;;4.27;58.41;101025.72;2060011;28;47221;-66
2021/12/23 01:52:49;;;;;;;;;56.25;46.75;;;;;4.27;57.94;101034.47;2062439;28;47739;-66
2021/12/23 01:53:49;;;;;;;;;52.25;42.75;;;;;4.28;58.26;101033.59;2062523;27;47115;-64
2021/12/23 01:54:50;;;;;;;;;44.25;40.50;;;;;4.29;58.33;101027.47;2065544;27;46191;-65
2021/12/23 01:55:50;;;;;;;;;54.25;42.25;;;;;4.28;58.34;101023.09;2061511;27;47405;-65
2021/12/23 01:56:51;;;;;;;;;47.25;40.75;;;;;4.28;58.40;101025.72;2050227;28;47417;-65
2021/12/23 01:57:52;;;;;;;;;52.00;44.50;;;;;4.28;58.32;101017.84;2043105;28;47149;-64
2021/12/23 01:58:53;;;;;;;;;52.40;40.80;;;;;4.29;58.46;101023.97;2060765;28;48515;-65
2021/12/23 01:59:54;;;;;;;;;47.00;42.20;;;;;4.27;58.41;101023.97;2056356;28;45302;-66
2021/12/23 02:00:54;;;;;;;;;52.25;42.50;;;;;4.29;58.59;101026.59;2056487;27;48041;-64
2021/12/23 02:01:55;;;;;;;;;51.50;42.00;;;;;4.28;58.14;101023.09;2054234;28;48058;-65
2021/12/23 02:02:56;;;;;;;;;53.75;44.00;;;;;4.28;58.15;101009.97;2059766;28;47637;-66
2021/12/23 02:03:56;;;;;;;;;49.40;42.40;;;;;4.28;58.61;101017.84;2060262;27;47205;-66
2021/12/23 02:04:57;;;;;;;;;47.00;41.00;;;;;4.28;58.36;101009.97;2056048;28;48000;-66
2021/12/23 02:05:57;;;;;;;;;47.75;40.25;;;;;4.29;58.31;101014.34;2057236;27;47829;-64
2021/12/23 02:06:58;;;;;;;;;51.75;41.75;;;;;4.30;58.27;101009.97;2054082;28;48228;-65
2021/12/23 02:07:59;;;;;;;;;53.75;44.00;;;;;4.29;58.61;101014.34;2055148;28;46953;-65
2021/12/23 02:08:59;;;;;;;;;45.40;40.80;;;;;4.29;58.12;101006.47;2053669;28;47306;-65
2021/12/23 02:10:00;;;;;;;;;55.75;46.75;;;;;4.29;58.20;101003.84;2049380;28;48251;-65
2021/12/23 02:11:01;;;;;;;;;53.00;41.75;;;;;4.32;58.57;101016.13;2069434;27;47054;-66
2021/12/23 02:12:02;;;;;;;;;53.00;43.20;;;;;4.30;58.54;101008.22;2060834;28;48023;-66
2021/12/23 02:13:03;;;;;;;;;53.50;44.25;;;;;4.30;58.18;101008.22;2055366;28;46160;-65
2021/12/23 02:14:03;;;;;;;;;52.50;43.00;;;;;4.30;58.28;101007.34;2061332;27;47181;-66
2021/12/23 02:15:05;;;;;;;;;49.00;43.50;;;;;4.30;58.17;101005.59;2053523;28;47953;-66
2021/12/23 02:16:06;;;;;;;;;55.40;42.60;;;;;4.31;58.35;101009.09;2052505;28;48152;-65
2021/12/23 02:17:07;;;;;;;;;49.00;41.20;;;;;4.30;58.49;101013.47;2056066;28;47532;-66
2021/12/23 02:18:07;;;;;;;;;44.50;40.75;;;;;4.31;58.46;101009.97;2057204;28;48215;-66
2021/12/23 02:19:19;;;;;;;;;56.00;44.50;;;;;4.32;58.22;101011.78;2053129;28;48529;-66
2021/12/23 02:20:27;;;;;;;;;44.00;40.60;;;;;4.32;58.67;101018.75;2053108;28;48348;-65
2021/12/23 02:21:28;;;;;;;;;50.80;42.80;;;;;4.32;58.29;101009.16;2053027;28;46392;-64
2021/12/23 02:22:28;;;;;;;;;51.00;44.75;;;;;4.34;58.71;101011.78;2052720;28;47955;-65
2021/12/23 02:23:28;;;;;;;;;51.00;42.75;;;;;4.34;58.80;101010.03;2059605;28;48349;-66
2021/12/23 02:24:29;;;;;;;;;55.50;46.00;;;;;4.35;58.00;101016.16;2055473;28;48421;-64
2021/12/23 02:25:30;;;;;;;;;52.25;41.75;;;;;4.35;58.68;101011.78;2053832;28;48178;-65
2021/12/23 02:26:37;;;;;;;;;54.50;45.00;;;;;4.35;58.70;101009.16;2049423;28;45404;-65
2021/12/23 02:27:38;;;;;;;;;50.60;42.40;;;;;4.36;58.58;101016.19;2048983;28;47189;-65
2021/12/23 02:28:39;;;;;;;;;47.80;40.80;;;;;4.35;58.28;101010.91;2045966;28;47370;-65
2021/12/23 02:29:39;;;;;;;;;57.25;46.00;;;;;4.36;58.30;101013.53;2052068;28;47879;-65
2021/12/23 02:30:40;;;;;;;;;49.75;42.00;;;;;4.35;58.36;101017.03;2050939;28;48435;-65
2021/12/23 02:31:40;;;;;;;;;48.25;42.50;;;;;4.35;58.56;101014.41;2047971;28;48637;-65
2021/12/23 02:32:41;;;;;;;;;54.00;44.25;;;;;4.34;58.33;101012.66;2051619;28;47023;-65
2021/12/23 02:33:42;;;;;;;;;53.50;43.75;;;;;4.35;58.63;101003.91;2053705;28;47659;-66
2021/12/23 02:34:42;;;;;;;;;55.00;43.25;;;;;4.35;58.68;101003.03;2048528;28;47385;-65
2021/12/23 02:35:43;;;;;;;;;49.25;43.75;;;;;4.35;58.79;101011.78;2051825;28;47679;-66
2021/12/23 02:37:01;;;;;;;;;53.50;43.00;;;;;4.36;58.60;101007.41;2047749;28;48249;-65
2021/12/23 02:38:03;;;;;;;;;53.40;42.00;;;;;4.37;58.63;101009.16;2045497;28;47419;-65
2021/12/23 02:39:04;;;;;;;;;52.60;43.60;;;;;4.37;58.17;100998.66;2050662;28;46569;-66
2021/12/23 02:40:06;;;;;;;;;49.50;40.00;;;;;4.37;58.78;100994.28;2053627;28;48034;-65
2021/12/23 02:41:07;;;;;;;;;51.80;43.60;;;;;4.37;58.71;100993.41;2053766;28;47141;-65
2021/12/23 02:42:08;;;;;;;;;51.50;41.00;;;;;4.38;58.73;100989.91;2053900;28;46441;-65
2021/12/23 02:43:17;;;;;;;;;55.50;45.00;;;;;4.38;58.63;100989.91;2054026;28;47407;-65
2021/12/23 02:44:18;;;;;;;;;49.60;42.60;;;;;4.39;58.58;100995.16;2053406;28;47250;-65
2021/12/23 02:45:19;;;;;;;;;48.25;42.25;;;;;4.39;58.28;100996.91;2053391;28;48362;-64
2021/12/23 02:46:19;;;;;;;;;42.75;38.00;;;;;4.39;58.50;100991.66;2050693;28;47275;-64
2021/12/23 02:47:20;;;;;;;;;43.00;34.25;;;;;4.39;58.66;100996.91;2054035;28;47193;-65
2021/12/23 02:48:25;;;;;;;;;50.80;42.40;;;;;4.40;58.56;100990.78;2055122;28;47474;-65
2021/12/23 02:49:25;;;;;;;;;54.20;44.80;;;;;4.40;58.48;100996.94;2056429;28;47391;-64
2021/12/23 02:50:26;;;;;;;;;47.50;40.75;;;;;4.41;58.28;100992.56;2057875;28;47697;-64
2021/12/23 02:51:26;;;;;;;;;50.25;42.00;;;;;4.43;58.86;100990.81;2058692;28;48182;-65
2021/12/23 02:52:27;;;;;;;;;55.25;43.75;;;;;4.44;58.56;100989.94;2061645;28;46985;-64
2021/12/23 02:53:27;;;;;;;;;49.75;42.50;;;;;4.44;58.80;100984.69;2063332;27;47171;-65
2021/12/23 02:54:28;;;;;;;;;50.00;43.00;;;;;4.44;58.73;100987.31;2058130;28;46340;-65
2021/12/23 02:55:29;;;;;;;;;50.60;43.40;;;;;4.43;58.46;100978.56;2056619;28;45370;-66
2021/12/23 02:56:29;;;;;;;;;59.00;45.50;;;;;4.43;58.79;100975.91;2058303;28;47248;-66
2021/12/23 02:57:31;;;;;;;;;51.50;42.75;;;;;4.42;58.37;100971.53;2061886;27;47321;-65
2021/12/23 02:58:32;;;;;;;;;53.00;43.60;;;;;4.44;58.72;100974.19;2062684;28;46469;-65
2021/12/23 02:59:33;;;;;;;;;51.80;42.00;;;;;4.45;58.41;100983.84;2055474;28;47490;-65
2021/12/23 03:00:34;;;;;;;;;54.00;44.50;;;;;4.45;58.75;100983.84;2053770;28;46966;-64
2021/12/23 03:01:34;;;;;;;;;50.60;41.80;;;;;4.44;58.62;100982.06;2055999;28;47199;-66
2021/12/23 03:02:38;;;;;;;;;54.50;43.75;;;;;4.44;58.66;100982.94;2057622;28;47190;-64
2021/12/23 03:03:39;;;;;;;;;54.40;43.80;;;;;4.44;58.44;100984.69;2057901;28;47776;-66
2021/12/23 03:04:39;;;;;;;;;49.25;42.75;;;;;4.46;58.52;100982.09;2053495;28;47498;-64
2021/12/23 03:05:46;;;;;;;;;52.25;44.00;;;;;4.47;58.46;100981.22;2055948;28;47724;-65
2021/12/23 03:06:46;;;;;;;;;43.80;39.60;;;;;4.46;58.70;100982.97;2056653;28;46517;-65
2021/12/23 03:07:47;;;;;;;;;47.75;40.50;;;;;4.47;58.07;100981.22;2059999;27;46792;-65
2021/12/23 03:08:50;;;;;;;;;56.50;45.50;;;;;4.47;58.61;100978.59;2062849;27;47237;-65
2021/12/23 03:09:51;;;;;;;;;52.40;44.80;;;;;4.47;58.43;100975.97;2054154;27;46978;-65
2021/12/23 03:10:51;;;;;;;;;54.00;43.25;;;;;4.47;58.28;100975.97;2055371;28;47253;-65
2021/12/23 03:11:52;;;;;;;;;49.50;42.50;;;;;4.46;58.40;100968.97;2068795;28;47974;-65
2021/12/23 03:12:53;;;;;;;;;53.00;46.00;;;;;4.47;58.27;100975.97;2054431;28;46816;-65
2021/12/23 03:13:54;;;;;;;;;52.40;44.60;;;;;4.47;58.32;100965.47;2045502;28;46979;-65
2021/12/23 03:14:55;;;;;;;;;42.40;38.60;;;;;4.47;58.33;100965.47;2054442;28;47160;-65
2021/12/23 03:15:56;;;;;;;;;55.00;44.25;;;;;4.47;58.61;100971.59;2053704;28;47854;-65
2021/12/23 03:16:56;;;;;;;;;51.00;43.80;;;;;4.48;58.77;100964.59;2054868;28;48246;-65
2021/12/23 03:17:57;;;;;;;;;50.75;44.75;;;;;4.48;58.50;100962.84;2054474;28;48354;-66
2021/12/23 03:18:57;;;;;;;;;56.25;42.00;;;;;4.49;58.31;100963.72;2054582;28;47589;-65
2021/12/23 03:19:58;;;;;;;;;55.00;46.75;;;;;4.50;58.39;100957.59;2053595;28;47488;-64
2021/12/23 03:20:59;;;;;;;;;52.00;42.00;;;;;4.50;58.35;100962.84;2054652;28;46256;-64
2021/12/23 03:21:59;;;;;;;;;53.75;40.75;;;;;4.51;58.30;100967.22;2052820;28;47241;-64
2021/12/23 03:23:00;;;;;;;;;51.00;42.50;;;;;4.50;58.73;100963.72;2053492;28;48235;-64
2021/12/23 03:24:01;;;;;;;;;53.25;43.25;;;;;4.49;58.30;100964.59;2051332;28;48200;-66
2021/12/23 03:25:01;;;;;;;;;51.40;42.60;;;;;4.50;58.66;100960.22;2054694;28;48352;-65
2021/12/23 03:26:03;;;;;;;;;47.50;40.25;;;;;4.49;58.40;100956.72;2053702;28;47104;-65
2021/12/23 03:27:04;;;;;;;;;57.80;47.80;;;;;4.49;58.44;100950.56;2050108;28;46353;-65
2021/12/23 03:28:04;;;;;;;;;44.75;41.25;;;;;4.50;58.62;100961.09;2055493;28;48466;-65
2021/12/23 03:29:08;;;;;;;;;49.00;41.25;;;;;4.50;58.77;100949.69;2054698;28;45892;-65
2021/12/23 03:30:09;;;;;;;;;56.60;44.00;;;;;4.50;58.50;100952.34;2054418;28;48004;-65
2021/12/23 03:31:09;;;;;;;;;52.60;43.40;;;;;4.49;58.42;100951.44;2053373;28;48140;-65
2021/12/23 03:32:10;;;;;;;;;54.00;44.00;;;;;4.50;58.43;100954.97;2048242;28;48047;-65
2021/12/23 03:33:10;;;;;;;;;56.75;47.00;;;;;4.49;58.49;100954.09;2055108;28;47637;-65
2021/12/23 03:34:10;;;;;;;;;44.00;38.25;;;;;4.50;58.19;100952.34;2054445;28;47295;-65
2021/12/23 03:35:11;;;;;;;;;47.25;41.50;;;;;4.50;58.53;100954.97;2055096;28;48351;-65
2021/12/23 03:36:12;;;;;;;;;54.25;44.00;;;;;4.49;58.63;100943.56;2048811;28;47502;-65
2021/12/23 03:37:12;;;;;;;;;43.75;39.25;;;;;4.49;58.42;100945.31;2054795;28;46093;-65
2021/12/23 03:38:14;;;;;;;;;57.25;44.25;;;;;4.49;58.70;100948.81;2053610;28;47631;-65
2021/12/23 03:39:15;;;;;;;;;58.00;47.40;;;;;4.49;58.99;100932.19;2052738;28;48085;-64
2021/12/23 03:40:15;;;;;;;;;46.50;40.00;;;;;4.50;58.63;100936.56;2054490;28;46160;-64
2021/12/23 03:41:16;;;;;;;;;51.75;43.00;;;;;4.49;58.90;100937.44;2054305;28;46496;-65
2021/12/23 03:42:17;;;;;;;;;57.75;47.00;;;;;4.49;58.90;100937.44;2054120;28;48086;-65
2021/12/23 03:43:18;;;;;;;;;52.20;45.00;;;;;4.49;58.96;100934.81;2054984;28;47963;-64
2021/12/23 03:44:19;;;;;;;;;55.00;45.00;;;;;4.49;58.76;100942.69;2052341;28;47513;-65
2021/12/23 03:45:19;;;;;;;;;51.50;44.00;;;;;4.49;58.65;100932.19;2046165;28;47087;-65
2021/12/23 03:46:20;;;;;;;;;53.50;46.00;;;;;4.50;58.60;100926.06;2050363;28;45426;-65
2021/12/23 03:47:20;;;;;;;;;48.50;40.75;;;;;4.50;58.67;100932.19;2054744;28;48446;-64
2021/12/23 03:48:21;;;;;;;;;55.50;44.75;;;;;4.52;58.36;100929.56;2054539;28;47322;-65
2021/12/23 03:49:21;;;;;;;;;51.50;42.50;;;;;4.51;58.72;100927.81;2052445;28;47190;-64
2021/12/23 03:50:24;;;;;;;;;55.25;43.50;;;;;4.52;58.74;100926.94;2052651;28;47644;-65
2021/12/23 03:51:24;;;;;;;;;50.40;44.20;;;;;4.52;58.52;100924.31;2054188;28;47622;-65
2021/12/23 03:52:25;;;;;;;;;46.75;39.25;;;;;4.52;59.05;100926.94;2060620;27;46908;-65
2021/12/23 03:53:25;;;;;;;;;46.25;39.00;;;;;4.52;58.57;100926.94;2055039;28;45253;-65
2021/12/23 03:54:26;;;;;;;;;48.75;42.75;;;;;4.52;58.57;100921.69;2051019;28;48527;-65
2021/12/23 03:55:26;;;;;;;;;54.00;44.25;;;;;4.52;58.58;100919.06;2050793;28;47342;-64
2021/12/23 03:56:27;;;;;;;;;32.75;28.00;;;;;4.52;58.70;100926.94;2049952;28;47185;-65
2021/12/23 03:57:28;;;;;;;;;44.75;40.75;;;;;4.53;59.02;100926.94;2058272;27;47224;-65
2021/12/23 03:58:28;;;;;;;;;54.25;43.75;;;;;4.53;58.71;100923.44;2051280;27;47283;-65
2021/12/23 03:59:28;;;;;;;;;44.50;38.25;;;;;4.54;58.78;100922.56;2050571;28;48341;-65
2021/12/23 04:00:30;;;;;;;;;50.25;44.25;;;;;4.54;58.57;100927.81;2051370;28;48377;-64
2021/12/23 04:01:31;;;;;;;;;56.80;47.20;;;;;4.54;59.06;100927.81;2050599;28;46470;-65
2021/12/23 04:02:31;;;;;;;;;45.75;42.00;;;;;4.55;59.11;100921.69;2046641;28;47661;-65
2021/12/23 04:03:32;;;;;;;;;54.25;43.75;;;;;4.53;58.61;100926.94;2054495;28;48388;-64
2021/12/23 04:04:32;;;;;;;;;54.25;46.25;;;;;4.53;59.10;100921.69;2052978;28;47248;-64
2021/12/23 04:05:33;;;;;;;;;55.25;44.25;;;;;4.54;59.01;100918.19;2052004;28;46190;-63
2021/12/23 04:06:33;;;;;;;;;47.25;41.00;;;;;4.54;58.89;100915.56;2061560;27;45606;-64
2021/12/23 04:07:34;;;;;;;;;47.75;42.75;;;;;4.55;59.13;100909.44;2061636;27;46410;-64
2021/12/23 04:08:35;;;;;;;;;55.40;44.40;;;;;4.55;58.67;100909.44;2047928;28;47258;-64
2021/12/23 04:09:36;;;;;;;;;50.00;43.50;;;;;4.57;58.75;100904.19;2053455;28;46317;-66
2021/12/23 04:10:37;;;;;;;;;55.50;46.00;;;;;4.57;58.65;100906.81;2054578;28;47262;-65
2021/12/23 04:11:37;;;;;;;;;53.20;44.00;;;;;4.58;58.84;100901.59;2054387;28;48034;-64
2021/12/23 04:12:38;;;;;;;;;50.75;41.50;;;;;4.59;58.76;100902.47;2054305;28;48291;-65
2021/12/23 04:13:39;;;;;;;;;51.00;43.50;;;;;4.58;58.77;100898.97;2053078;28;47338;-64
2021/12/23 04:14:39;;;;;;;;;54.00;40.50;;;;;4.58;59.07;100903.34;2063426;28;47193;-64
2021/12/23 04:15:40;;;;;;;;;54.50;45.25;;;;;4.59;59.06;100900.72;2062729;27;48175;-66
2021/12/23 04:16:40;;;;;;;;;53.50;45.50;;;;;4.60;58.70;100902.47;2051881;28;47325;-65
2021/12/23 04:17:41;;;;;;;;;51.00;43.75;;;;;4.60;58.90;100902.47;2053957;28;48188;-65
2021/12/23 04:18:45;;;;;;;;;54.00;42.75;;;;;4.60;58.82;100899.84;2054643;28;47123;-65
2021/12/23 04:19:46;;;;;;;;;54.00;44.80;;;;;4.61;58.91;100901.59;2053659;28;47489;-65
2021/12/23 04:20:53;;;;;;;;;49.60;42.00;;;;;4.62;59.04;100898.09;2054142;28;47870;-65
2021/12/23 04:21:54;;;;;;;;;54.00;43.80;;;;;4.63;58.83;100889.34;2051971;28;47189;-64
2021/12/23 04:22:55;;;;;;;;;33.60;31.60;;;;;4.64;58.92;100892.84;2052924;28;48057;-65
2021/12/23 04:23:55;;;;;;;;;54.75;44.25;;;;;4.63;58.88;100889.34;2053317;28;46272;-64
2021/12/23 04:24:55;;;;;;;;;53.50;43.00;;;;;4.64;58.62;100888.47;2054376;28;48513;-64
2021/12/23 04:25:57;;;;;;;;;56.25;48.50;;;;;4.65;58.87;100886.72;2054396;28;47216;-65
2021/12/23 04:26:58;;;;;;;;;57.60;46.20;;;;;4.65;58.85;100876.19;2054669;28;47116;-65
2021/12/23 04:28:05;;;;;;;;;53.75;43.50;;;;;4.65;58.66;100878.81;2054220;28;48055;-65
2021/12/23 04:29:06;;;;;;;;;51.80;42.60;;;;;4.66;58.98;100878.84;2054292;28;47258;-65
2021/12/23 04:30:08;;;;;;;;;53.60;42.40;;;;;4.67;58.76;100871.81;2052024;28;48173;-65
2021/12/23 04:31:08;;;;;;;;;54.40;42.80;;;;;4.66;58.98;100876.19;2053387;28;47212;-65
2021/12/23 04:32:09;;;;;;;;;53.50;45.50;;;;;4.68;58.65;100877.09;2047879;28;48190;-64
2021/12/23 04:33:10;;;;;;;;;54.00;44.75;;;;;4.68;59.05;100879.72;2054526;28;47660;-65
2021/12/23 04:34:11;;;;;;;;;53.80;45.00;;;;;4.68;58.88;100873.56;2054109;28;47432;-65
2021/12/23 04:35:12;;;;;;;;;57.50;46.50;;;;;4.67;58.73;100877.97;2054668;28;47072;-65
2021/12/23 04:36:12;;;;;;;;;47.25;37.75;;;;;4.69;59.15;100875.34;2052735;28;47167;-66
2021/12/23 04:37:13;;;;;;;;;54.75;44.25;;;;;4.68;59.05;100869.19;2049592;28;47317;-64
2021/12/23 04:38:14;;;;;;;;;55.40;45.00;;;;;4.69;59.05;100877.97;2054267;28;48401;-64
2021/12/23 04:39:14;;;;;;;;;58.50;47.00;;;;;4.69;59.06;100876.22;2054287;28;47689;-64
2021/12/23 04:40:15;;;;;;;;;50.75;43.25;;;;;4.70;58.70;100879.72;2054529;28;47974;-64
2021/12/23 04:41:16;;;;;;;;;60.40;45.60;;;;;4.70;58.84;100872.75;2054198;28;48585;-65
2021/12/23 04:42:16;;;;;;;;;54.00;46.00;;;;;4.70;58.90;100871.81;2054515;28;46354;-65
2021/12/23 04:43:17;;;;;;;;;50.75;41.50;;;;;4.71;58.62;100877.13;2054721;28;48367;-64
2021/12/23 04:44:17;;;;;;;;;52.50;45.25;;;;;4.71;59.07;100873.63;2053985;28;48273;-65
2021/12/23 04:45:18;;;;;;;;;47.75;40.25;;;;;4.70;59.06;100869.19;2051616;28;47180;-65
2021/12/23 04:46:18;;;;;;;;;52.50;43.50;;;;;4.70;58.78;100879.72;2050506;28;47179;-64
2021/12/23 04:47:19;;;;;;;;;52.00;41.50;;;;;4.70;58.81;100871.81;2052564;28;47125;-65
2021/12/23 04:48:19;;;;;;;;;46.00;40.00;;;;;4.70;58.96;100872.75;2053692;28;48233;-66
2021/12/23 04:49:22;;;;;;;;;55.75;45.50;;;;;4.70;59.18;100869.19;2053253;28;48069;-65
2021/12/23 04:50:23;;;;;;;;;51.00;42.40;;;;;4.72;59.16;100878.00;2050571;28;48193;-65